Flight Track Log - Related Links

Times and Time Zones

All times are in EDT time to prevent confusion due to time zone crossing. See the THY1706 flight status page for this flight to view local times or setup timezone preferences in your user account.

Time Position Orientation Groundspeed Altitude Reporting Facility
EDT Latitude Longitude Course Direction KTS MPH feet Rate Location/Type
Tue 02:20:00 PM 48.0205 11.6282 112° Southeast  Level Estimated
Tue 02:21:00 PM 47.9741 11.7864 114° Southeast  Level Estimated
Tue 02:22:00 PM 47.9275 11.9443 114° Southeast  Level Estimated
Tue 02:23:00 PM 47.8807 12.1019 114° Southeast  Level Estimated
Tue 02:24:00 PM 47.8337 12.2592 114° Southeast  Level Estimated
Tue 02:25:00 PM 47.7864 12.4162 114° Southeast  Level Estimated
Tue 02:26:00 PM 47.7389 12.5729 114° Southeast  Level Estimated
Tue 02:27:00 PM 47.6913 12.7294 114° Southeast  Level Estimated
Tue 02:28:00 PM 47.6434 12.8855 114° Southeast  Level Estimated
Tue 02:29:00 PM 47.5953 13.0414 115° Southeast  Level Estimated
Tue 02:30:00 PM 47.5470 13.1970 115° Southeast  Level Estimated
Tue 02:31:00 PM 47.4984 13.3523 115° Southeast  Level Estimated
Tue 02:32:00 PM 47.4497 13.5073 115° Southeast  Level Estimated
Tue 02:33:00 PM 47.4007 13.6620 115° Southeast  Level Estimated
Tue 02:34:00 PM 47.3516 13.8165 115° Southeast  Level Estimated
Tue 02:35:00 PM 47.3022 13.9706 115° Southeast  Level Estimated
Tue 02:36:00 PM 47.2527 14.1245 115° Southeast  Level Estimated
Tue 02:37:00 PM 47.2029 14.2781 115° Southeast  Level Estimated
Tue 02:38:00 PM 47.1529 14.4313 116° Southeast  Level Estimated
Tue 02:39:00 PM 47.1028 14.5843 116° Southeast  Level Estimated
Tue 02:40:00 PM 47.0524 14.7370 116° Southeast  Level Estimated
Tue 02:41:00 PM 47.0018 14.8895 116° Southeast  Level Estimated
Tue 02:42:00 PM 46.9510 15.0416 116° Southeast  Level Estimated
Tue 02:43:00 PM 46.9000 15.1934 116° Southeast  Level Estimated
Tue 02:44:00 PM 46.8488 15.3450 116° Southeast  Level Estimated
Tue 02:45:00 PM 46.7975 15.4962 116° Southeast  Level Estimated
Tue 02:46:00 PM 46.7459 15.6472 116° Southeast  Level Estimated
Tue 02:47:00 PM 46.6941 15.7979 117° Southeast  Level Estimated
Tue 02:48:00 PM 46.6421 15.9483 117° Southeast  Level Estimated
Tue 02:49:00 PM 46.5899 16.0984 117° Southeast  Level Estimated
Tue 02:50:00 PM 46.5375 16.2482 117° Southeast  Level Estimated
Tue 02:51:00 PM 46.4850 16.3977 117° Southeast  Level Estimated
Tue 02:52:00 PM 46.4322 16.5470 117° Southeast  Level Estimated
Tue 02:53:00 PM 46.3792 16.6959 117° Southeast  Level Estimated
Tue 02:54:00 PM 46.3261 16.8446 117° Southeast  Level Estimated
Tue 02:55:00 PM 46.2728 16.9930 117° Southeast  Level Estimated
Tue 02:56:00 PM 46.2192 17.1410 118° Southeast  Level Estimated
Tue 02:57:00 PM 46.1655 17.2888 118° Southeast  Level Estimated
Tue 02:58:00 PM 46.1116 17.4363 118° Southeast  Level Estimated
Tue 02:59:00 PM 46.0575 17.5835 118° Southeast  Level Estimated
Tue 03:00:00 PM 46.0032 17.7305 118° Southeast  Level Estimated
Tue 03:01:00 PM 45.9487 17.8771 118° Southeast  Level Estimated
Tue 03:02:00 PM 45.8940 18.0235 118° Southeast  Level Estimated
Tue 03:03:00 PM 45.8392 18.1695 118° Southeast  Level Estimated
Tue 03:04:00 PM 45.7841 18.3153 118° Southeast  Level Estimated
Tue 03:05:00 PM 45.7289 18.4608 118° Southeast  Level Estimated
Tue 03:06:00 PM 45.6735 18.6060 119° Southeast  Level Estimated
Tue 03:07:00 PM 45.6179 18.7509 119° Southeast  Level Estimated
Tue 03:08:00 PM 45.5621 18.8955 119° Southeast  Level Estimated
Tue 03:09:00 PM 45.5062 19.0398 119° Southeast  Level Estimated
Tue 03:10:00 PM 45.4500 19.1839 119° Southeast  Level Estimated
Tue 03:11:00 PM 45.3937 19.3276 119° Southeast  Level Estimated
Tue 03:12:00 PM 45.3372 19.4711 119° Southeast  Level Estimated
Tue 03:13:00 PM 45.2805 19.6143 119° Southeast  Level Estimated
Tue 03:14:00 PM 45.2237 19.7572 119° Southeast  Level Estimated
Tue 03:15:00 PM 45.1666 19.8998 120° Southeast  Level Estimated
Tue 03:16:00 PM 45.1094 20.0421 120° Southeast  Level Estimated
Tue 03:17:00 PM 45.0520 20.1842 120° Southeast  Level Estimated
Tue 03:18:00 PM 44.9945 20.3259 120° Southeast  Level Estimated
Tue 03:19:00 PM 44.9367 20.4674 120° Southeast  Level Estimated
Tue 03:20:00 PM 44.8788 20.6086 120° Southeast  Level Estimated
Tue 03:21:00 PM 44.8207 20.7495 120° Southeast  Level Estimated
Tue 03:22:00 PM 44.7625 20.8901 120° Southeast  Level Estimated
Tue 03:23:00 PM 44.7040 21.0304 120° Southeast  Level Estimated
Tue 03:24:00 PM 44.6454 21.1705 120° Southeast  Level Estimated
Tue 03:25:00 PM 44.5867 21.3103 121° Southeast  Level Estimated
Tue 03:26:00 PM 44.5277 21.4498 121° Southeast  Level Estimated
Tue 03:27:00 PM 44.4686 21.5889 121° Southeast  Level Estimated
Tue 03:28:00 PM 44.4093 21.7279 121° Southeast  Level Estimated
Tue 03:29:00 PM 44.3499 21.8665 121° Southeast  Level Estimated
Tue 03:30:00 PM 44.2902 22.0049 121° Southeast  Level Estimated
Tue 03:31:00 PM 44.2305 22.1430 121° Southeast  Level Estimated
Tue 03:32:00 PM 44.1705 22.2808 121° Southeast  Level Estimated
Tue 03:33:00 PM 44.1104 22.4183 121° Southeast  Level Estimated
Tue 03:34:00 PM 44.0501 22.5555 121° Southeast  Level Estimated
Tue 03:35:00 PM 43.9897 22.6925 121° Southeast  Level Estimated
Tue 03:36:00 PM 43.9291 22.8291 122° Southeast  Level Estimated
Tue 03:37:00 PM 43.8683 22.9655 122° Southeast  Level Estimated
Tue 03:38:00 PM 43.8074 23.1017 122° Southeast  Level Estimated
Tue 03:39:00 PM 43.7463 23.2375 122° Southeast  Level Estimated
Tue 03:40:00 PM 43.6850 23.3731 122° Southeast  Level Estimated
Tue 03:41:00 PM 43.6236 23.5084 122° Southeast  Level Estimated
Tue 03:42:00 PM 43.5620 23.6434 122° Southeast  Level Estimated
Tue 03:43:00 PM 43.5003 23.7781 122° Southeast  Level Estimated
Tue 03:44:00 PM 43.4384 23.9126 122° Southeast  Level Estimated
Tue 03:45:00 PM 43.3763 24.0468 122° Southeast  Level Estimated
Tue 03:46:00 PM 43.3141 24.1807 123° Southeast  Level Estimated
Tue 03:47:00 PM 43.2518 24.3143 123° Southeast  Level Estimated
Tue 03:48:00 PM 43.1893 24.4477 123° Southeast  Level Estimated
Tue 03:49:00 PM 43.1266 24.5808 123° Southeast  Level Estimated
Tue 03:50:00 PM 43.0638 24.7136 123° Southeast  Level Estimated
Tue 03:51:00 PM 43.0008 24.8461 123° Southeast  Level Estimated
Tue 03:52:00 PM 42.9376 24.9784 123° Southeast  Level Estimated
Tue 03:53:00 PM 42.8744 25.1104 123° Southeast  Level Estimated
Tue 03:54:00 PM 42.8109 25.2421 123° Southeast  Level Estimated
Tue 03:55:00 PM 42.7473 25.3736 123° Southeast  Level Estimated
Tue 03:56:00 PM 42.6836 25.5048 123° Southeast  Level Estimated
Tue 03:57:00 PM 42.6197 25.6357 124° Southeast  Level Estimated
Tue 03:58:00 PM 42.5557 25.7664 124° Southeast  Level Estimated
Tue 03:59:00 PM 42.4915 25.8967 124° Southeast  Level Estimated
Tue 04:00:00 PM 42.4272 26.0269 124° Southeast  Level Estimated
Tue 04:01:00 PM 42.3627 26.1567 124° Southeast  Level Estimated
Tue 04:02:00 PM 42.2981 26.2863 124° Southeast  Level Estimated
Tue 04:03:00 PM 42.2333 26.4156 124° Southeast  Level Estimated
Tue 04:04:00 PM 42.1684 26.5447 124° Southeast  Level Estimated
Tue 04:05:00 PM 42.1034 26.6735 124° Southeast  Level Estimated
Tue 04:06:00 PM 42.0382 26.8020 124° Southeast  Level Estimated
Tue 04:07:00 PM 41.9728 26.9302 124° Southeast  Level Estimated
Tue 04:08:00 PM 41.9073 27.0582 124° Southeast  Level Estimated
Tue 04:09:00 PM 41.8417 27.1860 125° Southeast  Level Estimated
Tue 04:10:00 PM 41.7759 27.3134 125° Southeast  Level Estimated
Tue 04:11:00 PM 41.7100 27.4407 125° Southeast  Level Estimated
Tue 04:12:00 PM 41.6440 27.5676 125° Southeast  Level Estimated
Tue 04:13:00 PM 41.5778 27.6943 125° Southeast  Level Estimated
Tue 04:14:00 PM 41.5115 27.8207 125° Southeast  Level Estimated
Tue 04:15:00 PM 41.4450 27.9469 125° Southeast  Level Estimated
Tue 04:16:00 PM 41.3784 28.0728 125° Southeast  Level Estimated
Tue 04:17:00 PM 41.3117 28.1985 125° Southeast  Level Estimated
Tue 04:18:00 PM 41.2448 28.3239 125° Southeast  Level Estimated
Tue 04:19:00 PM 41.1778 28.4490 125° Southeast  Level Estimated
Tue 04:20:00 PM 41.1106 28.5739 125° Southeast  Level Estimated
Tue 04:21:00 PM 41.0433 28.6985 126° Southeast  Level Estimated
Tue 04:22:00 PM 40.9769 28.8211 126° Southeast  Level Estimated
Tue 04:23:00 PM 40.9769 28.8211 North  Level Estimated
Tue 04:24:00 PM 40.9769 28.8211 North  Level Estimated
Tue 04:25:00 PM 40.9769 28.8211 North  Level Estimated
Tue 04:26:00 PM 40.9769 28.8211 North  Level Estimated
Tue 04:27:00 PM 40.9769 28.8211 North  Level Estimated
Tue 04:28:00 PM 40.9769 28.8211 North  Level Estimated
Tue 04:29:00 PM 40.9769 28.8211 North  Level Estimated
Tue 04:30:00 PM 40.9769 28.8211 North  Level Estimated
Tue 04:31:00 PM 40.9769 28.8211 North  Level Estimated
Tue 04:32:00 PM 40.9769 28.8211 North  Level Estimated
Tue 04:33:00 PM 40.9769 28.8211 North  Level Estimated
Tue 04:34:00 PM 40.9769 28.8211 North  Level Estimated
Tue 04:35:00 PM 40.9769 28.8211 North  Level Estimated
Tue 04:36:00 PM 40.9769 28.8211 North  Level Estimated

Login

Don't have an account? Register now (free) for customized features, flight alerts, and more!